Reklama

Seznam meteostanic a jejich METAR

Vyhledat místa podle abecedy:
A B C D E F G H I J K L M N O P Q R S T U V W X Y Z

Filtrovat:

ID stanice:
a/nebo
Název místa (fulltext):
 
Místo (ID)Naposledy načteno 
Liberec (Liberec) 05.12.2019 23:00 UTC Zobrazit data
Místo: Liberec
Teplota: -1 °C (pocitová: -10.6 °C)
Vítr: 5 m/s z(e) 130°
Počasí: zataženo
Dohlednost: 7 km
Zákl. oblačnosti: 8/8 240 m
Vlhkost: 80%
Luká (Luka) 05.12.2019 23:00 UTC Zobrazit data
Místo: Luká
Teplota: -2 °C (pocitová: -11.1 °C)
Vítr: 4 m/s z(e) 190°
Počasí: zataženo
Dohlednost: 2000 m
Zákl. oblačnosti: 8/8 60 m
Vlhkost: 93%
Lysá Hora (Lysa Hora) 05.12.2019 23:00 UTC Zobrazit data
Místo: Lysá Hora
Teplota: 4 °C (pocitová: -5.1 °C)
Vítr: 8 m/s z(e) 240°
Počasí:
Dohlednost: 35 km
Zákl. oblačnosti: N/A
Vlhkost: 33%
L'viv (UKLL) 13.12.2012 15:00 UTC  
La Palma (GCLA) 06.12.2019 00:00 UTC Zobrazit METAR
GCLA 060000Z AUTO 35012KT 320V020 9999 FEW038 BKN076 18/12 Q1018
La Paz (SLLP) 05.12.2019 13:00 UTC Zobrazit METAR
SLLP 051300Z VRB02KT 6000 FEW005 SCT070 BKN200 11/06 Q1038
Laayoune (GMML) 01.12.2019 09:30 UTC Zobrazit METAR
GMML 010930Z 05009KT 9999 BKN011 17/15 Q1021 NOSIG
Larnaca (LCLK) 06.12.2019 00:00 UTC Zobrazit METAR
LCLK 060000Z 30005KT CAVOK 10/05 Q1019 NOSIG
Leipzig-Halle (EDDP) 05.12.2019 23:50 UTC Zobrazit METAR
EDDP 052350Z 19010KT CAVOK M01/M03 Q1017 NOSIG
Libreville (FOOL) 04.12.2019 23:30 UTC Zobrazit METAR
FOOL 042330Z 17005KT 9999 FEW012 SCT030 26/25 Q1010 NOSIG
Liege (EBLG) 05.12.2019 23:50 UTC Zobrazit METAR
EBLG 052350Z 18012KT 150V220 8000 BKN007 M01/M02 Q1018 TEMPO 5000 BR BKN006
Liepaja (EVLA) 05.12.2019 23:50 UTC Zobrazit METAR
EVLA 052350Z AUTO 22019KT 9999 SCT016/// OVC018/// 07/05 Q1005
Lille (LFQQ) 06.12.2019 00:00 UTC Zobrazit METAR
LFQQ 060000Z AUTO 18015KT 5000 BR OVC003 02/02 Q1017 TEMPO 1200 DZRA
Lilongwe (FWLI) 04.06.2013 21:00 UTC Zobrazit METAR
FWLI 042100Z 05003KT CAVOK 14/11 Q1023 NOSIG
Lima - Callao (SPIM) 07.06.2019 22:00 UTC Zobrazit METAR
SPIM 072200Z /////KT 9999 BKN035 18/15 Q1015 RMK PP000
Limnos (LGLM) 05.12.2019 23:50 UTC Zobrazit METAR
LGLM 052350Z 03006KT 9999 FEW018 BKN040 10/05 Q1027
Linz (LOWL) 05.12.2019 23:50 UTC Zobrazit METAR
LOWL 052350Z AUTO VRB02KT 5000 BR BKN006 M02/M03 Q1023
Lisbon (LPPT) 06.12.2019 00:00 UTC Zobrazit METAR
LPPT 060000Z 04012KT CAVOK 13/07 Q1020
Liverpool (EGGP) 05.12.2019 23:50 UTC Zobrazit METAR
EGGP 052350Z 24015KT 9999 OVC024 13/11 Q1004
Ljubljana (LJLJ) 06.12.2019 00:00 UTC Zobrazit METAR
LJLJ 060000Z VRB01KT CAVOK M06/M07 Q1024 NOSIG
Lome (DXXX) 06.12.2019 00:00 UTC Zobrazit METAR
DXXX 060000Z 23008KT 9999 FEW012 28/25 Q1011 NOSIG
London (EGLL) 05.12.2019 23:50 UTC Zobrazit METAR
EGLL 052350Z AUTO 23015KT 9999 -RA OVC011 10/09 Q1012
Luanda (FNLU) 05.12.2019 23:00 UTC Zobrazit METAR
FNLU 052300Z VRB03KT 9999 FEW020 BKN070 26/23 Q1011 NOSIG
Lulea (ESPA) 05.12.2019 23:50 UTC Zobrazit METAR
ESPA 052350Z AUTO 25006KT 210V270 9999 FEW130/// 01/M03 Q0976
Lusaka (FLLS) 13.01.2014 07:00 UTC Zobrazit METAR
FLLS 130700Z 36009KT CAVOK 25/20 Q1019
Luxembourg Airport (ELLX) 05.12.2019 21:50 UTC Zobrazit METAR
ELLX 052150Z 22008KT 190V250 2000 BR OVC002 M03/M03 Q1020 NOSIG
Lyon (LFLL) 05.12.2019 00:00 UTC Zobrazit METAR
LFLL 050000Z 00000KT 2900 BR NSC M01/M02 Q1021 TEMPO 0600 BCFG
Reklama

Počasí na Váš email

Emaily jsou bez reklamy a bez spamu



Odhlásit newsletter

Reklama


Lunární kalendář

  • 12.12.
  • 19.12.
  • 26.12.
  • 03.01.



Reklama


Reklama
Povinné ručení
Reklama



Reklama